sensor_id;sensor_type;location;lat;lon;timestamp;temperature;humidity
30308;DHT22;17114;52.314;8.910;2023-06-26T00:00:10;21.10;99.90
30308;DHT22;17114;52.314;8.910;2023-06-26T00:02:38;21.10;99.90
30308;DHT22;17114;52.314;8.910;2023-06-26T00:05:05;21.10;99.90
30308;DHT22;17114;52.314;8.910;2023-06-26T00:07:32;21.10;99.90
30308;DHT22;17114;52.314;8.910;2023-06-26T00:10:02;21.00;99.90
30308;DHT22;17114;52.314;8.910;2023-06-26T00:12:30;21.00;99.90
30308;DHT22;17114;52.314;8.910;2023-06-26T00:14:58;21.00;99.90
30308;DHT22;17114;52.314;8.910;2023-06-26T00:17:25;21.00;99.90
30308;DHT22;17114;52.314;8.910;2023-06-26T00:19:52;21.00;99.90
30308;DHT22;17114;52.314;8.910;2023-06-26T00:22:20;20.90;99.90
30308;DHT22;17114;52.314;8.910;2023-06-26T00:24:47;20.90;99.90
30308;DHT22;17114;52.314;8.910;2023-06-26T00:27:14;20.90;99.90
30308;DHT22;17114;52.314;8.910;2023-06-26T00:29:41;20.80;99.90
30308;DHT22;17114;52.314;8.910;2023-06-26T00:32:08;20.80;99.90
30308;DHT22;17114;52.314;8.910;2023-06-26T00:34:34;20.80;99.90
30308;DHT22;17114;52.314;8.910;2023-06-26T00:37:01;20.70;99.90
30308;DHT22;17114;52.314;8.910;2023-06-26T00:39:28;20.80;99.90
30308;DHT22;17114;52.314;8.910;2023-06-26T00:41:55;20.70;99.90
30308;DHT22;17114;52.314;8.910;2023-06-26T00:44:22;20.70;99.90
30308;DHT22;17114;52.314;8.910;2023-06-26T00:46:49;20.70;99.90
30308;DHT22;17114;52.314;8.910;2023-06-26T00:49:16;20.60;99.90
30308;DHT22;17114;52.314;8.910;2023-06-26T00:51:43;20.60;99.90
30308;DHT22;17114;52.314;8.910;2023-06-26T00:54:11;20.50;99.90
30308;DHT22;17114;52.314;8.910;2023-06-26T00:56:38;20.50;99.90
30308;DHT22;17114;52.314;8.910;2023-06-26T00:59:06;20.50;99.90
30308;DHT22;17114;52.314;8.910;2023-06-26T01:01:33;20.50;99.90
30308;DHT22;17114;52.314;8.910;2023-06-26T01:04:00;20.50;99.90
30308;DHT22;17114;52.314;8.910;2023-06-26T01:06:30;20.40;99.90
30308;DHT22;17114;52.314;8.910;2023-06-26T01:08:59;20.40;99.90
30308;DHT22;17114;52.314;8.910;2023-06-26T01:11:26;20.30;99.90
30308;DHT22;17114;52.314;8.910;2023-06-26T01:13:54;20.30;99.90
30308;DHT22;17114;52.314;8.910;2023-06-26T01:16:23;20.30;99.90
30308;DHT22;17114;52.314;8.910;2023-06-26T01:18:51;20.30;99.90
30308;DHT22;17114;52.314;8.910;2023-06-26T01:21:19;20.30;99.90
30308;DHT22;17114;52.314;8.910;2023-06-26T01:24:05;20.20;99.90
30308;DHT22;17114;52.314;8.910;2023-06-26T01:26:36;20.30;99.90
30308;DHT22;17114;52.314;8.910;2023-06-26T01:29:06;20.20;99.90
30308;DHT22;17114;52.314;8.910;2023-06-26T01:31:34;20.20;99.90
30308;DHT22;17114;52.314;8.910;2023-06-26T01:34:02;20.20;99.90
30308;DHT22;17114;52.314;8.910;2023-06-26T01:36:30;20.30;99.90
30308;DHT22;17114;52.314;8.910;2023-06-26T01:38:57;20.30;99.90
30308;DHT22;17114;52.314;8.910;2023-06-26T01:41:24;20.40;99.90
30308;DHT22;17114;52.314;8.910;2023-06-26T01:46:40;20.60;99.90
30308;DHT22;17114;52.314;8.910;2023-06-26T01:49:20;20.70;99.90
30308;DHT22;17114;52.314;8.910;2023-06-26T01:51:58;20.80;99.90
30308;DHT22;17114;52.314;8.910;2023-06-26T01:54:30;20.90;99.90
30308;DHT22;17114;52.314;8.910;2023-06-26T01:57:00;21.00;99.90
30308;DHT22;17114;52.314;8.910;2023-06-26T01:59:28;21.10;99.90
30308;DHT22;17114;52.314;8.910;2023-06-26T02:01:56;21.10;99.90
30308;DHT22;17114;52.314;8.910;2023-06-26T02:04:23;21.10;99.90
30308;DHT22;17114;52.314;8.910;2023-06-26T02:06:50;21.10;99.90
30308;DHT22;17114;52.314;8.910;2023-06-26T02:09:17;21.20;99.90
30308;DHT22;17114;52.314;8.910;2023-06-26T02:11:44;21.20;99.90
30308;DHT22;17114;52.314;8.910;2023-06-26T02:14:11;21.20;99.90
30308;DHT22;17114;52.314;8.910;2023-06-26T02:16:39;21.20;99.90
30308;DHT22;17114;52.314;8.910;2023-06-26T02:19:08;21.20;99.90
30308;DHT22;17114;52.314;8.910;2023-06-26T02:21:35;21.20;99.90
30308;DHT22;17114;52.314;8.910;2023-06-26T02:24:02;21.20;99.90
30308;DHT22;17114;52.314;8.910;2023-06-26T02:26:29;21.20;99.90
30308;DHT22;17114;52.314;8.910;2023-06-26T02:28:56;21.20;99.90
30308;DHT22;17114;52.314;8.910;2023-06-26T02:31:23;21.20;99.90
30308;DHT22;17114;52.314;8.910;2023-06-26T02:33:50;21.10;99.90
30308;DHT22;17114;52.314;8.910;2023-06-26T02:36:16;21.10;99.90
30308;DHT22;17114;52.314;8.910;2023-06-26T02:38:43;21.10;99.90
30308;DHT22;17114;52.314;8.910;2023-06-26T02:41:11;21.10;99.90
30308;DHT22;17114;52.314;8.910;2023-06-26T02:43:38;21.10;99.90
30308;DHT22;17114;52.314;8.910;2023-06-26T02:46:05;21.10;99.90
30308;DHT22;17114;52.314;8.910;2023-06-26T02:48:32;21.10;99.90
30308;DHT22;17114;52.314;8.910;2023-06-26T02:50:59;21.10;99.90
30308;DHT22;17114;52.314;8.910;2023-06-26T02:53:25;21.00;99.90
30308;DHT22;17114;52.314;8.910;2023-06-26T02:55:52;21.10;99.90
30308;DHT22;17114;52.314;8.910;2023-06-26T02:58:19;21.10;99.90
30308;DHT22;17114;52.314;8.910;2023-06-26T03:00:46;21.10;99.90
30308;DHT22;17114;52.314;8.910;2023-06-26T03:03:14;21.10;99.90
30308;DHT22;17114;52.314;8.910;2023-06-26T03:05:41;21.10;99.90
30308;DHT22;17114;52.314;8.910;2023-06-26T03:08:08;21.00;99.90
30308;DHT22;17114;52.314;8.910;2023-06-26T03:10:35;21.10;99.90
30308;DHT22;17114;52.314;8.910;2023-06-26T03:13:02;21.10;99.90
30308;DHT22;17114;52.314;8.910;2023-06-26T03:15:29;21.10;99.90
30308;DHT22;17114;52.314;8.910;2023-06-26T03:17:55;21.10;99.90
30308;DHT22;17114;52.314;8.910;2023-06-26T03:20:22;21.10;99.90
30308;DHT22;17114;52.314;8.910;2023-06-26T03:22:51;21.10;99.90
30308;DHT22;17114;52.314;8.910;2023-06-26T03:25:17;21.20;99.90
30308;DHT22;17114;52.314;8.910;2023-06-26T03:27:44;21.20;99.90
30308;DHT22;17114;52.314;8.910;2023-06-26T03:30:11;21.20;99.90
30308;DHT22;17114;52.314;8.910;2023-06-26T03:32:38;21.20;99.90
30308;DHT22;17114;52.314;8.910;2023-06-26T03:35:06;21.20;99.90
30308;DHT22;17114;52.314;8.910;2023-06-26T03:37:33;21.20;99.90
30308;DHT22;17114;52.314;8.910;2023-06-26T03:39:59;21.20;99.90
30308;DHT22;17114;52.314;8.910;2023-06-26T03:42:26;21.30;99.90
30308;DHT22;17114;52.314;8.910;2023-06-26T03:44:53;21.30;99.90
30308;DHT22;17114;52.314;8.910;2023-06-26T03:47:20;21.30;99.90
30308;DHT22;17114;52.314;8.910;2023-06-26T03:49:47;21.30;99.90
30308;DHT22;17114;52.314;8.910;2023-06-26T03:52:14;21.30;99.90
30308;DHT22;17114;52.314;8.910;2023-06-26T03:54:41;21.30;99.90
30308;DHT22;17114;52.314;8.910;2023-06-26T03:57:08;21.30;99.90
30308;DHT22;17114;52.314;8.910;2023-06-26T03:59:36;21.30;99.90
30308;DHT22;17114;52.314;8.910;2023-06-26T04:02:03;21.30;99.90
30308;DHT22;17114;52.314;8.910;2023-06-26T04:04:30;21.40;99.90
30308;DHT22;17114;52.314;8.910;2023-06-26T04:06:57;21.40;99.90
30308;DHT22;17114;52.314;8.910;2023-06-26T04:09:26;21.40;99.90
30308;DHT22;17114;52.314;8.910;2023-06-26T04:11:53;21.40;99.90
30308;DHT22;17114;52.314;8.910;2023-06-26T04:14:20;21.50;99.90
30308;DHT22;17114;52.314;8.910;2023-06-26T04:16:47;21.50;99.90
30308;DHT22;17114;52.314;8.910;2023-06-26T04:19:14;21.60;99.90
30308;DHT22;17114;52.314;8.910;2023-06-26T04:21:41;21.60;99.90
30308;DHT22;17114;52.314;8.910;2023-06-26T04:24:08;21.80;99.90
30308;DHT22;17114;52.314;8.910;2023-06-26T04:26:35;21.90;99.90
30308;DHT22;17114;52.314;8.910;2023-06-26T04:29:02;21.90;99.90
30308;DHT22;17114;52.314;8.910;2023-06-26T04:31:30;22.00;99.90
30308;DHT22;17114;52.314;8.910;2023-06-26T04:33:57;22.00;99.90
30308;DHT22;17114;52.314;8.910;2023-06-26T04:36:24;22.10;99.90
30308;DHT22;17114;52.314;8.910;2023-06-26T04:38:55;22.30;99.90
30308;DHT22;17114;52.314;8.910;2023-06-26T04:41:23;22.70;99.90
30308;DHT22;17114;52.314;8.910;2023-06-26T04:43:49;23.20;99.90
30308;DHT22;17114;52.314;8.910;2023-06-26T04:46:16;23.70;99.90
30308;DHT22;17114;52.314;8.910;2023-06-26T04:48:43;24.10;99.90
30308;DHT22;17114;52.314;8.910;2023-06-26T04:51:13;24.50;99.90
30308;DHT22;17114;52.314;8.910;2023-06-26T04:53:40;24.90;99.90
30308;DHT22;17114;52.314;8.910;2023-06-26T04:56:07;25.20;99.90
30308;DHT22;17114;52.314;8.910;2023-06-26T04:58:34;25.40;99.90
30308;DHT22;17114;52.314;8.910;2023-06-26T05:01:01;25.70;99.90
30308;DHT22;17114;52.314;8.910;2023-06-26T05:03:29;26.00;99.90
30308;DHT22;17114;52.314;8.910;2023-06-26T05:05:56;26.10;99.90
30308;DHT22;17114;52.314;8.910;2023-06-26T05:08:24;26.20;99.90
30308;DHT22;17114;52.314;8.910;2023-06-26T05:10:53;26.50;99.90
30308;DHT22;17114;52.314;8.910;2023-06-26T05:13:25;26.60;99.90
30308;DHT22;17114;52.314;8.910;2023-06-26T05:15:52;26.80;99.90
30308;DHT22;17114;52.314;8.910;2023-06-26T05:18:19;26.80;99.90
30308;DHT22;17114;52.314;8.910;2023-06-26T05:20:46;26.90;99.90
30308;DHT22;17114;52.314;8.910;2023-06-26T05:23:15;27.10;99.90
30308;DHT22;17114;52.314;8.910;2023-06-26T05:25:42;27.40;99.90
30308;DHT22;17114;52.314;8.910;2023-06-26T05:28:10;27.60;99.90
30308;DHT22;17114;52.314;8.910;2023-06-26T05:30:38;27.70;99.90
30308;DHT22;17114;52.314;8.910;2023-06-26T05:33:06;27.90;99.90
30308;DHT22;17114;52.314;8.910;2023-06-26T05:35:37;28.00;99.90
30308;DHT22;17114;52.314;8.910;2023-06-26T05:38:04;28.10;99.90
30308;DHT22;17114;52.314;8.910;2023-06-26T05:40:32;28.20;99.90
30308;DHT22;17114;52.314;8.910;2023-06-26T05:43:01;28.30;99.90
30308;DHT22;17114;52.314;8.910;2023-06-26T05:45:28;28.20;99.90
30308;DHT22;17114;52.314;8.910;2023-06-26T05:47:54;28.30;99.90
30308;DHT22;17114;52.314;8.910;2023-06-26T05:50:22;28.50;99.90
30308;DHT22;17114;52.314;8.910;2023-06-26T05:52:49;28.50;99.90
30308;DHT22;17114;52.314;8.910;2023-06-26T05:55:16;28.40;99.90
30308;DHT22;17114;52.314;8.910;2023-06-26T05:57:43;28.50;99.90
30308;DHT22;17114;52.314;8.910;2023-06-26T06:00:11;28.70;99.90
30308;DHT22;17114;52.314;8.910;2023-06-26T06:02:39;28.70;99.90
30308;DHT22;17114;52.314;8.910;2023-06-26T06:05:13;28.60;99.90
30308;DHT22;17114;52.314;8.910;2023-06-26T06:07:40;28.90;99.90
30308;DHT22;17114;52.314;8.910;2023-06-26T06:10:11;29.00;99.90
30308;DHT22;17114;52.314;8.910;2023-06-26T06:12:38;28.90;99.90
30308;DHT22;17114;52.314;8.910;2023-06-26T06:15:06;28.80;99.90
30308;DHT22;17114;52.314;8.910;2023-06-26T06:17:33;28.80;99.90
30308;DHT22;17114;52.314;8.910;2023-06-26T06:20:00;29.00;99.90
30308;DHT22;17114;52.314;8.910;2023-06-26T06:22:27;29.00;99.90
30308;DHT22;17114;52.314;8.910;2023-06-26T06:24:54;29.20;99.90
30308;DHT22;17114;52.314;8.910;2023-06-26T06:27:20;29.40;99.90
30308;DHT22;17114;52.314;8.910;2023-06-26T06:29:50;29.40;99.90
30308;DHT22;17114;52.314;8.910;2023-06-26T06:32:17;29.20;99.90
30308;DHT22;17114;52.314;8.910;2023-06-26T06:34:44;29.10;99.90
30308;DHT22;17114;52.314;8.910;2023-06-26T06:37:12;29.10;99.90
30308;DHT22;17114;52.314;8.910;2023-06-26T06:39:40;29.00;99.90
30308;DHT22;17114;52.314;8.910;2023-06-26T06:42:07;29.00;99.90
30308;DHT22;17114;52.314;8.910;2023-06-26T06:44:34;29.00;99.90
30308;DHT22;17114;52.314;8.910;2023-06-26T06:47:02;29.20;99.90
30308;DHT22;17114;52.314;8.910;2023-06-26T06:49:29;29.70;99.90
30308;DHT22;17114;52.314;8.910;2023-06-26T06:52:01;29.70;99.90
30308;DHT22;17114;52.314;8.910;2023-06-26T06:54:29;30.00;99.90
30308;DHT22;17114;52.314;8.910;2023-06-26T06:56:56;30.20;99.90
30308;DHT22;17114;52.314;8.910;2023-06-26T06:59:23;30.00;99.90
30308;DHT22;17114;52.314;8.910;2023-06-26T07:01:50;29.90;99.90
30308;DHT22;17114;52.314;8.910;2023-06-26T07:04:17;30.00;99.90
30308;DHT22;17114;52.314;8.910;2023-06-26T07:06:44;30.20;99.90
30308;DHT22;17114;52.314;8.910;2023-06-26T07:09:11;30.30;99.90
30308;DHT22;17114;52.314;8.910;2023-06-26T07:11:38;30.20;99.90
30308;DHT22;17114;52.314;8.910;2023-06-26T07:14:05;30.40;99.90
30308;DHT22;17114;52.314;8.910;2023-06-26T07:16:32;30.70;99.90
30308;DHT22;17114;52.314;8.910;2023-06-26T07:18:59;30.60;99.90
30308;DHT22;17114;52.314;8.910;2023-06-26T07:21:26;30.60;99.90
30308;DHT22;17114;52.314;8.910;2023-06-26T07:23:52;30.40;99.90
30308;DHT22;17114;52.314;8.910;2023-06-26T07:26:19;30.40;99.90
30308;DHT22;17114;52.314;8.910;2023-06-26T07:29:08;30.60;99.90
30308;DHT22;17114;52.314;8.910;2023-06-26T07:31:35;30.70;99.90
30308;DHT22;17114;52.314;8.910;2023-06-26T07:34:02;30.60;99.90
30308;DHT22;17114;52.314;8.910;2023-06-26T07:36:28;30.60;99.90
30308;DHT22;17114;52.314;8.910;2023-06-26T07:38:55;30.30;99.90
30308;DHT22;17114;52.314;8.910;2023-06-26T07:41:22;30.20;99.90
30308;DHT22;17114;52.314;8.910;2023-06-26T07:43:49;30.10;99.90
30308;DHT22;17114;52.314;8.910;2023-06-26T07:46:16;30.20;99.90
30308;DHT22;17114;52.314;8.910;2023-06-26T07:48:42;30.40;99.90
30308;DHT22;17114;52.314;8.910;2023-06-26T07:51:09;30.10;99.90
30308;DHT22;17114;52.314;8.910;2023-06-26T07:53:36;29.70;99.90
30308;DHT22;17114;52.314;8.910;2023-06-26T07:56:03;29.60;99.90
30308;DHT22;17114;52.314;8.910;2023-06-26T07:58:30;29.80;99.90
30308;DHT22;17114;52.314;8.910;2023-06-26T08:00:56;30.00;99.90
30308;DHT22;17114;52.314;8.910;2023-06-26T08:03:23;29.90;99.90
30308;DHT22;17114;52.314;8.910;2023-06-26T08:06:00;30.30;99.90
30308;DHT22;17114;52.314;8.910;2023-06-26T08:08:27;30.60;99.90
30308;DHT22;17114;52.314;8.910;2023-06-26T08:10:54;30.40;99.90
30308;DHT22;17114;52.314;8.910;2023-06-26T08:13:21;30.30;99.90
30308;DHT22;17114;52.314;8.910;2023-06-26T08:15:48;30.30;99.90
30308;DHT22;17114;52.314;8.910;2023-06-26T08:18:15;30.70;99.90
30308;DHT22;17114;52.314;8.910;2023-06-26T08:20:42;30.60;99.90
30308;DHT22;17114;52.314;8.910;2023-06-26T08:23:08;29.80;99.90
30308;DHT22;17114;52.314;8.910;2023-06-26T08:25:35;29.20;99.90
30308;DHT22;17114;52.314;8.910;2023-06-26T08:28:02;28.90;99.90
30308;DHT22;17114;52.314;8.910;2023-06-26T08:30:31;28.70;99.90
30308;DHT22;17114;52.314;8.910;2023-06-26T08:32:58;28.50;99.90
30308;DHT22;17114;52.314;8.910;2023-06-26T08:35:25;28.20;99.90
30308;DHT22;17114;52.314;8.910;2023-06-26T08:37:52;28.00;99.90
30308;DHT22;17114;52.314;8.910;2023-06-26T08:40:21;27.90;99.90
30308;DHT22;17114;52.314;8.910;2023-06-26T08:42:48;27.60;99.90
30308;DHT22;17114;52.314;8.910;2023-06-26T08:45:19;27.20;99.90
30308;DHT22;17114;52.314;8.910;2023-06-26T08:47:48;27.00;99.90
30308;DHT22;17114;52.314;8.910;2023-06-26T08:50:20;27.20;99.90
30308;DHT22;17114;52.314;8.910;2023-06-26T08:53:07;27.00;99.90
30308;DHT22;17114;52.314;8.910;2023-06-26T08:55:38;26.80;99.90
30308;DHT22;17114;52.314;8.910;2023-06-26T08:58:07;26.70;99.90
30308;DHT22;17114;52.314;8.910;2023-06-26T09:00:34;26.60;99.90
30308;DHT22;17114;52.314;8.910;2023-06-26T09:03:03;26.60;99.90
30308;DHT22;17114;52.314;8.910;2023-06-26T09:05:30;26.40;99.90
30308;DHT22;17114;52.314;8.910;2023-06-26T09:08:00;26.00;99.90
30308;DHT22;17114;52.314;8.910;2023-06-26T09:10:27;25.70;99.90
30308;DHT22;17114;52.314;8.910;2023-06-26T09:12:57;25.30;99.90
30308;DHT22;17114;52.314;8.910;2023-06-26T09:15:44;25.00;99.90
30308;DHT22;17114;52.314;8.910;2023-06-26T09:18:12;24.80;99.90
30308;DHT22;17114;52.314;8.910;2023-06-26T09:20:39;24.70;99.90
30308;DHT22;17114;52.314;8.910;2023-06-26T09:23:06;24.50;99.90
30308;DHT22;17114;52.314;8.910;2023-06-26T09:25:33;24.40;99.90
30308;DHT22;17114;52.314;8.910;2023-06-26T09:28:00;24.40;99.90
30308;DHT22;17114;52.314;8.910;2023-06-26T09:30:27;24.40;99.90
30308;DHT22;17114;52.314;8.910;2023-06-26T09:32:54;24.50;99.90
30308;DHT22;17114;52.314;8.910;2023-06-26T09:35:21;25.00;99.90
30308;DHT22;17114;52.314;8.910;2023-06-26T09:37:48;25.60;99.90
30308;DHT22;17114;52.314;8.910;2023-06-26T09:40:15;25.80;99.90
30308;DHT22;17114;52.314;8.910;2023-06-26T09:42:43;25.90;99.90
30308;DHT22;17114;52.314;8.910;2023-06-26T09:45:18;26.10;99.90
30308;DHT22;17114;52.314;8.910;2023-06-26T09:47:46;26.50;99.90
30308;DHT22;17114;52.314;8.910;2023-06-26T09:50:23;26.90;99.90
30308;DHT22;17114;52.314;8.910;2023-06-26T09:52:51;27.20;99.90
30308;DHT22;17114;52.314;8.910;2023-06-26T09:55:19;27.10;99.90
30308;DHT22;17114;52.314;8.910;2023-06-26T09:57:50;26.90;99.90
30308;DHT22;17114;52.314;8.910;2023-06-26T10:00:18;26.70;99.90
30308;DHT22;17114;52.314;8.910;2023-06-26T10:02:45;26.40;99.90
30308;DHT22;17114;52.314;8.910;2023-06-26T10:05:12;26.00;99.90
30308;DHT22;17114;52.314;8.910;2023-06-26T10:07:40;25.80;99.90
30308;DHT22;17114;52.314;8.910;2023-06-26T10:10:07;26.20;99.90
30308;DHT22;17114;52.314;8.910;2023-06-26T10:12:35;26.80;99.90
30308;DHT22;17114;52.314;8.910;2023-06-26T10:15:03;27.20;99.90
30308;DHT22;17114;52.314;8.910;2023-06-26T10:17:35;27.30;99.90
30308;DHT22;17114;52.314;8.910;2023-06-26T10:20:04;26.90;99.90
30308;DHT22;17114;52.314;8.910;2023-06-26T10:22:37;26.40;99.90
30308;DHT22;17114;52.314;8.910;2023-06-26T10:25:07;25.90;99.90
30308;DHT22;17114;52.314;8.910;2023-06-26T10:27:42;25.60;99.90
30308;DHT22;17114;52.314;8.910;2023-06-26T10:30:16;25.30;99.90
30308;DHT22;17114;52.314;8.910;2023-06-26T10:32:48;25.20;99.90
30308;DHT22;17114;52.314;8.910;2023-06-26T10:35:15;25.10;99.90
30308;DHT22;17114;52.314;8.910;2023-06-26T10:37:48;25.20;99.90
30308;DHT22;17114;52.314;8.910;2023-06-26T10:40:27;25.30;99.90
30308;DHT22;17114;52.314;8.910;2023-06-26T10:43:08;25.60;99.90
30308;DHT22;17114;52.314;8.910;2023-06-26T10:45:36;25.60;99.90
30308;DHT22;17114;52.314;8.910;2023-06-26T10:48:03;25.60;99.90
30308;DHT22;17114;52.314;8.910;2023-06-26T10:50:33;25.30;99.90
30308;DHT22;17114;52.314;8.910;2023-06-26T10:53:14;25.00;99.90
30308;DHT22;17114;52.314;8.910;2023-06-26T10:56:04;24.90;99.90
30308;DHT22;17114;52.314;8.910;2023-06-26T10:58:33;24.90;99.90
30308;DHT22;17114;52.314;8.910;2023-06-26T11:01:20;25.20;99.90
30308;DHT22;17114;52.314;8.910;2023-06-26T11:04:10;25.70;99.90
30308;DHT22;17114;52.314;8.910;2023-06-26T11:06:38;25.90;99.90
30308;DHT22;17114;52.314;8.910;2023-06-26T11:09:10;26.10;99.90
30308;DHT22;17114;52.314;8.910;2023-06-26T11:14:32;26.60;99.90
30308;DHT22;17114;52.314;8.910;2023-06-26T11:16:59;26.80;99.90
30308;DHT22;17114;52.314;8.910;2023-06-26T11:19:28;26.70;99.90
30308;DHT22;17114;52.314;8.910;2023-06-26T11:22:01;26.30;99.90
30308;DHT22;17114;52.314;8.910;2023-06-26T11:24:29;25.90;99.90
30308;DHT22;17114;52.314;8.910;2023-06-26T11:27:00;25.80;99.90
30308;DHT22;17114;52.314;8.910;2023-06-26T11:29:29;25.70;99.90
30308;DHT22;17114;52.314;8.910;2023-06-26T11:32:01;25.80;99.90
30308;DHT22;17114;52.314;8.910;2023-06-26T11:34:31;25.90;99.90
30308;DHT22;17114;52.314;8.910;2023-06-26T11:36:59;25.80;99.90
30308;DHT22;17114;52.314;8.910;2023-06-26T11:39:28;25.80;99.90
30308;DHT22;17114;52.314;8.910;2023-06-26T11:41:55;26.20;99.90
30308;DHT22;17114;52.314;8.910;2023-06-26T11:44:22;26.80;99.90
30308;DHT22;17114;52.314;8.910;2023-06-26T11:46:51;27.20;99.90
30308;DHT22;17114;52.314;8.910;2023-06-26T11:49:19;27.50;99.90
30308;DHT22;17114;52.314;8.910;2023-06-26T11:51:49;27.50;99.90
30308;DHT22;17114;52.314;8.910;2023-06-26T11:54:23;27.40;99.90
30308;DHT22;17114;52.314;8.910;2023-06-26T11:56:51;27.30;99.90
30308;DHT22;17114;52.314;8.910;2023-06-26T11:59:19;27.70;99.90
30308;DHT22;17114;52.314;8.910;2023-06-26T12:01:45;27.90;99.90
30308;DHT22;17114;52.314;8.910;2023-06-26T12:04:15;27.60;99.90
30308;DHT22;17114;52.314;8.910;2023-06-26T12:06:47;27.30;99.90
30308;DHT22;17114;52.314;8.910;2023-06-26T12:09:17;27.40;99.90
30308;DHT22;17114;52.314;8.910;2023-06-26T12:11:47;27.70;99.90
30308;DHT22;17114;52.314;8.910;2023-06-26T12:14:16;28.10;99.90
30308;DHT22;17114;52.314;8.910;2023-06-26T12:16:44;28.20;99.90
30308;DHT22;17114;52.314;8.910;2023-06-26T12:19:11;28.40;99.90
30308;DHT22;17114;52.314;8.910;2023-06-26T12:24:10;28.50;99.90
30308;DHT22;17114;52.314;8.910;2023-06-26T12:26:45;28.50;99.90
30308;DHT22;17114;52.314;8.910;2023-06-26T12:29:14;28.40;99.90
30308;DHT22;17114;52.314;8.910;2023-06-26T12:31:59;28.30;99.90
30308;DHT22;17114;52.314;8.910;2023-06-26T12:34:31;28.20;99.90
30308;DHT22;17114;52.314;8.910;2023-06-26T12:37:10;28.20;99.90
30308;DHT22;17114;52.314;8.910;2023-06-26T12:39:51;28.00;99.90
30308;DHT22;17114;52.314;8.910;2023-06-26T12:42:19;27.90;99.90
30308;DHT22;17114;52.314;8.910;2023-06-26T12:44:47;27.90;99.90
30308;DHT22;17114;52.314;8.910;2023-06-26T12:47:15;27.80;99.90
30308;DHT22;17114;52.314;8.910;2023-06-26T12:49:44;27.90;99.90
30308;DHT22;17114;52.314;8.910;2023-06-26T12:52:13;27.80;99.90
30308;DHT22;17114;52.314;8.910;2023-06-26T12:54:41;27.80;99.90
30308;DHT22;17114;52.314;8.910;2023-06-26T12:57:09;27.80;99.90
30308;DHT22;17114;52.314;8.910;2023-06-26T12:59:37;27.50;99.90
30308;DHT22;17114;52.314;8.910;2023-06-26T13:02:05;27.20;99.90
30308;DHT22;17114;52.314;8.910;2023-06-26T13:04:33;27.10;99.90
30308;DHT22;17114;52.314;8.910;2023-06-26T13:07:03;27.40;99.90
30308;DHT22;17114;52.314;8.910;2023-06-26T13:09:35;27.60;99.90
30308;DHT22;17114;52.314;8.910;2023-06-26T13:12:04;27.60;99.90
30308;DHT22;17114;52.314;8.910;2023-06-26T13:14:32;27.50;99.90
30308;DHT22;17114;52.314;8.910;2023-06-26T13:17:02;27.00;99.90
30308;DHT22;17114;52.314;8.910;2023-06-26T13:19:33;26.70;99.90
30308;DHT22;17114;52.314;8.910;2023-06-26T13:22:00;26.50;99.90
30308;DHT22;17114;52.314;8.910;2023-06-26T13:24:27;26.30;99.90
30308;DHT22;17114;52.314;8.910;2023-06-26T13:26:54;26.00;99.90
30308;DHT22;17114;52.314;8.910;2023-06-26T13:29:21;25.90;99.90
30308;DHT22;17114;52.314;8.910;2023-06-26T13:31:48;26.00;99.90
30308;DHT22;17114;52.314;8.910;2023-06-26T13:34:22;26.20;99.90
30308;DHT22;17114;52.314;8.910;2023-06-26T13:36:50;26.80;99.90
30308;DHT22;17114;52.314;8.910;2023-06-26T13:39:17;27.00;99.90
30308;DHT22;17114;52.314;8.910;2023-06-26T13:41:44;26.70;99.90
30308;DHT22;17114;52.314;8.910;2023-06-26T13:44:11;26.40;99.90
30308;DHT22;17114;52.314;8.910;2023-06-26T13:46:55;26.30;99.90
30308;DHT22;17114;52.314;8.910;2023-06-26T13:49:22;26.10;99.90
30308;DHT22;17114;52.314;8.910;2023-06-26T13:51:49;25.90;99.90
30308;DHT22;17114;52.314;8.910;2023-06-26T13:54:16;26.10;99.90
30308;DHT22;17114;52.314;8.910;2023-06-26T13:56:45;26.20;99.90
30308;DHT22;17114;52.314;8.910;2023-06-26T13:59:11;26.30;99.90
30308;DHT22;17114;52.314;8.910;2023-06-26T14:01:39;26.50;99.90
30308;DHT22;17114;52.314;8.910;2023-06-26T14:04:09;26.70;99.90
30308;DHT22;17114;52.314;8.910;2023-06-26T14:06:36;26.90;99.90
30308;DHT22;17114;52.314;8.910;2023-06-26T14:09:03;27.00;99.90
30308;DHT22;17114;52.314;8.910;2023-06-26T14:11:30;26.60;99.90
30308;DHT22;17114;52.314;8.910;2023-06-26T14:13:59;26.20;99.90
30308;DHT22;17114;52.314;8.910;2023-06-26T14:16:26;25.80;99.90
30308;DHT22;17114;52.314;8.910;2023-06-26T14:18:55;25.40;99.90
30308;DHT22;17114;52.314;8.910;2023-06-26T14:21:23;25.00;99.90
30308;DHT22;17114;52.314;8.910;2023-06-26T14:23:50;24.90;99.90
30308;DHT22;17114;52.314;8.910;2023-06-26T14:26:16;24.90;99.90
30308;DHT22;17114;52.314;8.910;2023-06-26T14:28:43;24.90;99.90
30308;DHT22;17114;52.314;8.910;2023-06-26T14:31:11;24.80;99.90
30308;DHT22;17114;52.314;8.910;2023-06-26T14:33:39;24.80;99.90
30308;DHT22;17114;52.314;8.910;2023-06-26T14:36:05;24.90;99.90
30308;DHT22;17114;52.314;8.910;2023-06-26T14:38:32;25.00;99.90
30308;DHT22;17114;52.314;8.910;2023-06-26T14:40:59;25.00;99.90
30308;DHT22;17114;52.314;8.910;2023-06-26T14:43:26;25.00;99.90
30308;DHT22;17114;52.314;8.910;2023-06-26T14:45:53;24.90;99.90
30308;DHT22;17114;52.314;8.910;2023-06-26T14:48:21;24.80;99.90
30308;DHT22;17114;52.314;8.910;2023-06-26T14:50:48;24.80;99.90
30308;DHT22;17114;52.314;8.910;2023-06-26T14:53:15;24.80;99.90
30308;DHT22;17114;52.314;8.910;2023-06-26T14:55:42;24.90;99.90
30308;DHT22;17114;52.314;8.910;2023-06-26T14:58:08;25.00;99.90
30308;DHT22;17114;52.314;8.910;2023-06-26T15:00:35;25.00;99.90
30308;DHT22;17114;52.314;8.910;2023-06-26T15:03:02;25.10;99.90
30308;DHT22;17114;52.314;8.910;2023-06-26T15:05:30;25.30;99.90
30308;DHT22;17114;52.314;8.910;2023-06-26T15:07:57;25.30;99.90
30308;DHT22;17114;52.314;8.910;2023-06-26T15:10:24;25.10;99.90
30308;DHT22;17114;52.314;8.910;2023-06-26T15:12:54;25.10;99.90
30308;DHT22;17114;52.314;8.910;2023-06-26T15:15:21;25.30;99.90
30308;DHT22;17114;52.314;8.910;2023-06-26T15:17:49;25.30;99.90
30308;DHT22;17114;52.314;8.910;2023-06-26T15:20:16;25.20;99.90
30308;DHT22;17114;52.314;8.910;2023-06-26T15:22:43;25.20;99.90
30308;DHT22;17114;52.314;8.910;2023-06-26T15:25:09;25.30;99.90
30308;DHT22;17114;52.314;8.910;2023-06-26T15:27:37;25.10;99.90
30308;DHT22;17114;52.314;8.910;2023-06-26T15:30:04;25.00;99.90
30308;DHT22;17114;52.314;8.910;2023-06-26T15:32:32;25.00;99.90
30308;DHT22;17114;52.314;8.910;2023-06-26T15:35:00;25.00;99.90
30308;DHT22;17114;52.314;8.910;2023-06-26T15:37:27;24.90;99.90
30308;DHT22;17114;52.314;8.910;2023-06-26T15:39:54;24.90;99.90
30308;DHT22;17114;52.314;8.910;2023-06-26T15:42:26;24.90;99.90
30308;DHT22;17114;52.314;8.910;2023-06-26T15:44:53;24.80;99.90